createdAt,value
2019-01-24T00:00:50.782Z,0.45
2019-01-24T00:10:50.748Z,0.52
2019-01-24T00:20:53.080Z,0.39
2019-01-24T00:30:50.779Z,0.37
2019-01-24T00:40:50.717Z,0.14
2019-01-24T00:50:50.738Z,0.41
2019-01-24T01:00:50.776Z,0.46
2019-01-24T01:10:50.683Z,0.41
2019-01-24T01:20:50.778Z,0.28
2019-01-24T01:30:51.487Z,0.15
2019-01-24T01:40:50.812Z,0.23
2019-01-24T01:50:50.715Z,0.17
2019-01-24T02:00:50.879Z,0.14
2019-01-24T02:10:50.665Z,0.11
2019-01-24T02:20:51.484Z,0.27
2019-01-24T02:30:50.655Z,0.58
2019-01-24T02:40:51.064Z,0.17
2019-01-24T02:50:50.684Z,0.06
2019-01-24T03:00:50.740Z,0.18
2019-01-24T03:10:50.775Z,0.23
2019-01-24T03:20:50.622Z,0.06
2019-01-24T03:30:57.917Z,0.15
2019-01-24T03:40:50.663Z,0.23
2019-01-24T03:50:50.682Z,0.14
2019-01-24T04:00:50.586Z,0.26
2019-01-24T04:10:50.700Z,0.49
2019-01-24T04:20:50.705Z,0.47
2019-01-24T04:30:50.649Z,0.26
2019-01-24T04:40:50.654Z,0.36
2019-01-24T04:50:50.634Z,0.14
2019-01-24T05:00:50.797Z,0.14
2019-01-24T05:10:50.546Z,0.27
2019-01-24T05:20:50.609Z,0.09
2019-01-24T05:30:50.610Z,0.12
2019-01-24T05:40:50.673Z,0.19
2019-01-24T05:50:50.683Z,0.12
2019-01-24T06:00:50.650Z,0.05
2019-01-24T06:10:50.697Z,0.12
2019-01-24T06:20:50.751Z,0.32
2019-01-24T06:30:50.698Z,0.27
2019-01-24T06:40:50.801Z,0.14
2019-01-24T06:50:50.746Z,0.12
2019-01-24T07:00:50.739Z,0.28
2019-01-24T07:10:50.639Z,0.11
2019-01-24T07:20:50.881Z,0.19
2019-01-24T07:30:50.605Z,0.12
2019-01-24T07:40:50.814Z,0.41
2019-01-24T07:50:51.585Z,0.68
2019-01-24T08:00:50.922Z,0.39
2019-01-24T08:10:50.787Z,0.27
2019-01-24T08:20:50.716Z,0.29
2019-01-24T08:30:50.760Z,0.47
2019-01-24T08:40:50.793Z,0.24
2019-01-24T08:50:50.672Z,0.11
2019-01-24T09:00:50.586Z,0.18
2019-01-24T09:10:50.890Z,0.34
2019-01-24T09:20:50.660Z,0.21
2019-01-24T09:30:50.859Z,0.20
2019-01-24T09:40:51.823Z,0.02
2019-01-24T09:50:50.683Z,0.51
2019-01-24T10:00:50.659Z,0.61
2019-01-24T10:10:50.744Z,0.95
2019-01-24T10:20:50.616Z,1.68
2019-01-24T10:30:50.689Z,0.66
2019-01-24T10:40:50.729Z,0.51
2019-01-24T10:50:50.559Z,0.30
2019-01-24T11:00:50.714Z,0.30
2019-01-24T11:10:50.702Z,0.47
2019-01-24T11:20:50.568Z,0.55
2019-01-24T11:30:50.737Z,1.96
2019-01-24T11:40:50.579Z,1.05
2019-01-24T11:50:51.201Z,0.86
2019-01-24T12:00:50.622Z,0.71
2019-01-24T12:10:50.696Z,1.03
2019-01-24T12:20:50.675Z,0.61
2019-01-24T12:30:50.591Z,0.31
2019-01-24T12:40:50.656Z,0.59
2019-01-24T12:50:50.608Z,0.93
2019-01-24T13:00:50.577Z,1.01
2019-01-24T13:10:50.650Z,1.13
2019-01-24T13:20:50.635Z,0.49
2019-01-24T13:30:50.561Z,0.85
2019-01-24T13:40:50.567Z,0.41
2019-01-24T13:50:50.617Z,0.60
2019-01-24T14:00:50.612Z,0.91
2019-01-24T14:10:50.662Z,1.14
2019-01-24T14:20:50.639Z,1.48
2019-01-24T14:30:50.629Z,1.13
2019-01-24T14:40:51.502Z,1.57
2019-01-24T14:50:50.734Z,0.67
2019-01-24T15:00:50.560Z,0.51
2019-01-24T15:10:50.783Z,0.33
2019-01-24T15:20:50.504Z,0.25
2019-01-24T15:30:50.666Z,0.16
2019-01-24T15:40:50.617Z,1.05
2019-01-24T15:50:50.611Z,0.68
2019-01-24T16:00:50.559Z,0.67
2019-01-24T16:10:50.487Z,1.48
2019-01-24T16:20:50.564Z,1.85
2019-01-24T16:30:51.025Z,1.15
2019-01-24T16:40:50.640Z,1.49
2019-01-24T16:50:50.592Z,0.73
2019-01-24T17:00:50.501Z,0.31
2019-01-24T17:10:50.510Z,1.04
2019-01-24T17:20:50.489Z,0.72
2019-01-24T17:30:50.390Z,0.16
2019-01-24T17:40:50.461Z,0.41
2019-01-24T17:50:50.473Z,0.65
2019-01-24T18:00:50.486Z,0.44
2019-01-24T18:10:50.447Z,1.24
2019-01-24T18:20:50.460Z,0.42
2019-01-24T18:30:50.524Z,1.01
2019-01-24T18:40:50.728Z,0.33
2019-01-24T18:50:50.503Z,1.07
2019-01-24T19:00:50.468Z,0.51
2019-01-24T19:10:50.412Z,0.58
2019-01-24T19:20:50.535Z,0.04
2019-01-24T19:30:50.471Z,0.00
2019-01-24T19:40:50.307Z,0.02
2019-01-24T19:50:50.359Z,0.00
2019-01-24T20:00:50.446Z,0.09
2019-01-24T20:10:50.388Z,0.84
2019-01-24T20:20:50.449Z,0.88
2019-01-24T20:30:50.404Z,0.89
2019-01-24T20:40:50.431Z,0.55
2019-01-24T20:50:50.453Z,0.77
2019-01-24T21:00:50.444Z,0.68
2019-01-24T21:10:50.343Z,0.02
2019-01-24T21:20:50.411Z,0.00
2019-01-24T21:30:50.389Z,0.08
2019-01-24T21:40:50.395Z,0.30
2019-01-24T21:50:50.917Z,1.14
2019-01-24T22:00:50.355Z,1.96
2019-01-24T22:10:50.432Z,2.39
2019-01-24T22:20:55.641Z,3.03
2019-01-24T22:30:50.406Z,2.47
2019-01-24T22:40:51.152Z,2.11
2019-01-24T22:50:50.341Z,1.83
2019-01-24T23:00:50.352Z,2.09
2019-01-24T23:10:50.340Z,2.03
2019-01-24T23:20:50.411Z,1.98
2019-01-24T23:30:50.391Z,1.89
2019-01-24T23:40:50.517Z,1.85
2019-01-24T23:50:50.320Z,1.43
